Time;durP1;ratioP1;P1;durP2;ratioP2;P2;SDS_P1;SDS_P2;PMS_P1;PMS_P2;Temp;Humidity;BMP_temperature;BMP_pressure;BME280_temperature;BME280_humidity;BME280_pressure;Samples;Min_cycle;Max_cycle;Signal;HPM_P1;HPM_P2
2021/03/03 00:00:19;;;;;;;24.80;12.93;;;;;;;3.20;71.50;97649.16;5052284;28;20064;-66
2021/03/03 00:02:45;;;;;;;23.50;12.30;;;;;;;3.18;71.33;97651.25;5053547;28;20080;-66
2021/03/03 00:05:12;;;;;;;23.58;12.02;;;;;;;3.17;71.18;97652.31;5052372;28;20053;-66
2021/03/03 00:07:38;;;;;;;26.45;13.43;;;;;;;3.12;71.24;97649.50;5053173;28;20626;-66
2021/03/03 00:10:05;;;;;;;23.52;12.07;;;;;;;3.06;71.34;97645.09;5051587;28;20045;-66
2021/03/03 00:12:33;;;;;;;24.92;12.70;;;;;;;3.01;70.99;97647.66;5053125;28;20453;-66
2021/03/03 00:14:59;;;;;;;22.42;12.00;;;;;;;2.94;71.44;97647.00;5053715;28;20049;-65
2021/03/03 00:17:25;;;;;;;24.48;12.05;;;;;;;2.88;71.58;97649.56;5051951;28;20049;-65
2021/03/03 00:19:51;;;;;;;23.33;11.77;;;;;;;2.81;71.56;97643.50;5053600;28;20045;-65
2021/03/03 00:22:17;;;;;;;21.80;12.13;;;;;;;2.76;71.79;97643.38;5051923;28;20558;-66
2021/03/03 00:24:42;;;;;;;22.17;11.52;;;;;;;2.78;71.92;97654.75;5053402;28;20733;-66
2021/03/03 00:27:08;;;;;;;22.25;12.02;;;;;;;2.78;71.83;97654.75;5051636;28;20072;-66
2021/03/03 00:29:35;;;;;;;21.83;11.30;;;;;;;2.78;71.76;97653.94;5053112;28;20037;-65
2021/03/03 00:32:01;;;;;;;25.10;12.02;;;;;;;2.77;71.68;97655.81;5052166;28;20049;-67
2021/03/03 00:34:27;;;;;;;26.20;11.55;;;;;;;2.71;72.11;97656.72;5052402;28;20055;-66
2021/03/03 00:36:53;;;;;;;24.80;11.88;;;;;;;2.71;72.23;97654.03;5052803;28;20053;-65
2021/03/03 00:39:19;;;;;;;21.55;11.25;;;;;;;2.69;72.20;97650.75;5051651;28;20056;-66
2021/03/03 00:41:45;;;;;;;26.80;13.05;;;;;;;2.69;72.22;97650.75;5053072;28;20136;-65
2021/03/03 00:44:11;;;;;;;22.85;11.27;;;;;;;2.65;72.35;97649.59;5052330;28;20557;-66
2021/03/03 00:46:38;;;;;;;21.75;11.52;;;;;;;2.66;72.16;97648.53;5053165;28;20454;-65
2021/03/03 00:49:04;;;;;;;25.02;11.82;;;;;;;2.66;72.38;97651.22;5051305;28;20041;-66
2021/03/03 00:51:30;;;;;;;23.25;11.70;;;;;;;2.64;72.48;97650.66;5052876;28;20063;-65
2021/03/03 00:53:56;;;;;;;24.08;12.07;;;;;;;2.66;72.31;97653.91;5051954;28;20111;-65
2021/03/03 00:56:22;;;;;;;23.95;11.93;;;;;;;2.63;72.19;97642.81;5051913;28;20045;-66
2021/03/03 00:58:48;;;;;;;20.27;10.60;;;;;;;2.62;72.02;97644.69;5051997;28;20124;-65
2021/03/03 01:01:14;;;;;;;26.25;11.65;;;;;;;2.58;71.81;97649.72;5051698;28;20068;-65
2021/03/03 01:03:41;;;;;;;23.40;11.10;;;;;;;2.53;71.53;97640.72;5052408;28;20056;-65
2021/03/03 01:06:07;;;;;;;22.58;11.57;;;;;;;2.48;71.89;97635.25;5051298;28;20056;-66
2021/03/03 01:08:33;;;;;;;22.50;11.43;;;;;;;2.44;72.24;97634.06;5052499;28;20048;-65
2021/03/03 01:10:59;;;;;;;23.45;11.38;;;;;;;2.35;72.22;97628.25;5050305;28;20055;-65
2021/03/03 01:13:25;;;;;;;24.15;11.25;;;;;;;2.28;72.21;97633.72;5051965;28;20131;-65
2021/03/03 01:15:51;;;;;;;20.15;10.77;;;;;;;2.25;72.41;97622.63;5051328;28;20052;-66
2021/03/03 01:18:17;;;;;;;20.73;10.38;;;;;;;2.22;72.53;97620.41;5051890;28;20127;-65
2021/03/03 01:20:44;;;;;;;24.30;11.40;;;;;;;2.16;72.60;97624.84;5051460;28;20511;-66
2021/03/03 01:23:10;;;;;;;21.50;10.98;;;;;;;2.13;72.58;97613.72;5051525;28;20103;-66
2021/03/03 01:25:36;;;;;;;24.60;11.13;;;;;;;2.12;72.79;97614.78;5051766;28;20634;-65
2021/03/03 01:28:02;;;;;;;20.77;11.10;;;;;;;2.13;72.72;97611.84;5050952;28;20048;-66
2021/03/03 01:30:28;;;;;;;20.30;10.60;;;;;;;2.11;72.82;97613.97;5052165;28;20131;-65
2021/03/03 01:32:54;;;;;;;22.42;10.95;;;;;;;2.08;72.69;97606.34;5051120;28;20044;-66
2021/03/03 01:35:20;;;;;;;21.58;11.65;;;;;;;2.05;72.89;97606.84;5051681;28;20462;-66
2021/03/03 01:37:47;;;;;;;22.25;11.00;;;;;;;2.00;72.93;97609.41;5050985;28;20052;-65
2021/03/03 01:40:14;;;;;;;21.75;11.38;;;;;;;1.98;73.07;97611.50;5051538;28;20052;-65
2021/03/03 01:42:40;;;;;;;23.50;11.15;;;;;;;1.93;73.22;97608.69;5050957;28;20053;-65
2021/03/03 01:45:07;;;;;;;23.60;11.10;;;;;;;1.95;73.01;97602.03;5051299;28;20051;-66
2021/03/03 01:47:33;;;;;;;25.23;11.55;;;;;;;1.96;73.02;97598.31;5051234;28;20049;-65
2021/03/03 01:49:59;;;;;;;22.45;10.70;;;;;;;1.99;72.57;97602.41;5051316;28;20055;-65
2021/03/03 01:52:25;;;;;;;21.27;10.93;;;;;;;1.98;72.57;97600.75;5051019;28;20048;-65
2021/03/03 01:54:52;;;;;;;21.60;10.88;;;;;;;1.97;72.74;97593.75;5050923;28;20118;-65
2021/03/03 01:57:18;;;;;;;21.67;11.35;;;;;;;1.99;72.68;97594.34;5051159;28;20053;-65
2021/03/03 01:59:44;;;;;;;21.15;10.80;;;;;;;1.98;72.52;97595.38;5050433;28;20520;-65
2021/03/03 02:02:10;;;;;;;22.40;11.48;;;;;;;1.97;72.65;97593.75;5051373;28;20051;-66
2021/03/03 02:04:37;;;;;;;25.27;11.73;;;;;;;1.98;72.79;97584.63;5050502;28;20040;-65
2021/03/03 02:07:08;;;;;;;22.13;11.23;;;;;;;1.97;72.88;97583.00;5050473;28;20056;-66
2021/03/03 02:09:43;;;;;;;24.67;11.52;;;;;;;1.94;73.14;97588.84;5049307;28;20492;-65
2021/03/03 02:12:15;;;;;;;22.83;11.48;;;;;;;1.93;73.41;97592.56;5050542;28;20045;-66
2021/03/03 02:14:47;;;;;;;18.27;8.25;;;;;;;1.92;73.51;97572.13;5050962;28;20514;-65
2021/03/03 02:17:14;;;;;;;21.88;11.73;;;;;;;1.90;73.52;97580.44;5050001;28;20045;-65
2021/03/03 02:19:41;;;;;;;24.98;12.23;;;;;;;1.91;73.56;97586.63;5051474;28;20071;-65
2021/03/03 02:22:17;;;;;;;22.40;11.35;;;;;;;1.91;73.10;97583.94;5049682;28;20056;-66
2021/03/03 02:24:51;;;;;;;26.13;10.95;;;;;;;1.93;73.05;97588.03;5051234;28;20048;-65
2021/03/03 02:27:20;;;;;;;23.23;11.40;;;;;;;1.94;72.30;97584.28;5049692;28;20048;-65
2021/03/03 02:29:48;;;;;;;19.30;10.55;;;;;;;1.93;72.12;97582.66;5051125;28;20500;-65
2021/03/03 02:32:16;;;;;;;20.58;10.10;;;;;;;1.90;71.97;97588.50;5050578;28;20151;-65
2021/03/03 02:34:42;;;;;;;19.73;10.48;;;;;;;1.88;71.79;97584.38;5050030;28;20508;-65
2021/03/03 02:37:09;;;;;;;21.45;10.90;;;;;;;1.87;71.94;97588.13;5050339;28;20621;-65
2021/03/03 02:39:36;;;;;;;20.88;11.00;;;;;;;1.84;71.57;97589.41;5049784;28;20071;-65
2021/03/03 02:42:03;;;;;;;23.48;10.93;;;;;;;1.82;71.80;97586.94;5050489;28;20053;-65
2021/03/03 02:44:32;;;;;;;21.90;11.10;;;;;;;1.79;72.10;97598.16;5049682;28;20040;-65
2021/03/03 02:46:58;;;;;;;23.65;10.80;;;;;;;1.76;72.26;97598.63;5050758;28;20052;-65
2021/03/03 02:49:25;;;;;;;19.90;10.82;;;;;;;1.73;72.12;97593.72;5049381;28;20432;-65
2021/03/03 02:51:51;;;;;;;28.85;11.65;;;;;;;1.72;72.25;97584.03;5050433;28;20049;-65
2021/03/03 02:54:17;;;;;;;24.10;11.85;;;;;;;1.69;72.58;97581.81;5049533;28;20413;-65
2021/03/03 02:56:44;;;;;;;23.33;11.98;;;;;;;1.67;72.71;97578.53;5050075;28;20051;-65
2021/03/03 02:59:22;;;;;;;22.33;11.02;;;;;;;1.68;72.93;97580.19;5049941;28;20049;-65
2021/03/03 03:01:53;;;;;;;20.63;10.75;;;;;;;1.67;72.60;97578.53;5049523;28;20460;-65
2021/03/03 03:04:21;;;;;;;21.30;11.35;;;;;;;1.67;72.28;97580.38;5050430;28;20071;-65
2021/03/03 03:06:48;;;;;;;23.27;10.35;;;;;;;1.63;71.73;97582.72;5049607;28;20045;-65
2021/03/03 03:09:16;;;;;;;23.65;11.30;;;;;;;1.58;71.96;97589.84;5048826;28;20119;-65
2021/03/03 03:11:47;;;;;;;21.67;11.00;;;;;;;1.55;72.03;97591.09;5049664;28;20545;-65
2021/03/03 03:14:17;;;;;;;21.08;10.38;;;;;;;1.53;72.16;97593.22;5049459;28;20104;-65
2021/03/03 03:16:46;;;;;;;23.23;10.88;;;;;;;1.52;72.35;97591.59;5049989;28;20049;-65
2021/03/03 03:19:17;;;;;;;23.92;11.70;;;;;;;1.51;72.65;97587.25;5050538;28;20106;-65
2021/03/03 03:21:46;;;;;;;22.70;11.70;;;;;;;1.51;72.53;97592.59;5054535;28;20049;-65
2021/03/03 03:24:15;;;;;;;20.88;10.75;;;;;;;1.48;72.70;97590.41;5052915;28;20048;-65
2021/03/03 03:26:42;;;;;;;23.20;11.43;;;;;;;1.47;72.78;97588.78;5054345;28;20041;-65
2021/03/03 03:29:09;;;;;;;19.88;10.40;;;;;;;1.46;72.95;97590.63;5033069;28;20049;-66
2021/03/03 03:31:38;;;;;;;22.98;11.45;;;;;;;1.47;72.92;97588.78;5034389;28;20060;-65
2021/03/03 03:34:06;;;;;;;20.85;10.50;;;;;;;1.47;72.78;97588.78;5033197;28;20584;-66
2021/03/03 03:36:35;;;;;;;22.45;10.57;;;;;;;1.46;72.71;97587.09;5033918;28;20120;-65
2021/03/03 03:39:02;;;;;;;20.60;10.00;;;;;;;1.43;72.49;97590.28;5035632;28;20069;-69
2021/03/03 03:41:29;;;;;;;24.25;11.30;;;;;;;1.43;72.12;97596.44;5053196;28;20041;-65
2021/03/03 03:43:56;;;;;;;24.48;10.93;;;;;;;1.40;72.09;97591.53;5054213;28;20045;-65
2021/03/03 03:46:22;;;;;;;22.45;10.70;;;;;;;1.36;72.11;97592.22;5053546;28;20046;-65
2021/03/03 03:48:49;;;;;;;26.88;10.80;;;;;;;1.34;72.52;97588.94;5052314;28;20052;-65
2021/03/03 03:51:15;;;;;;;24.77;11.18;;;;;;;1.28;72.76;97580.78;5052559;28;20056;-66
2021/03/03 03:53:42;;;;;;;22.08;10.75;;;;;;;1.27;72.91;97589.88;5053910;28;20041;-65
2021/03/03 03:56:09;;;;;;;23.65;10.43;;;;;;;1.29;72.63;97589.63;5052542;28;20040;-66
2021/03/03 03:58:35;;;;;;;22.75;10.48;;;;;;;1.29;72.46;97598.50;5053379;28;20408;-65
2021/03/03 04:01:01;;;;;;;21.20;11.05;;;;;;;1.29;72.61;97593.13;5053445;28;20137;-66
2021/03/03 04:03:27;;;;;;;21.98;10.07;;;;;;;1.30;72.63;97596.63;5052922;28;20041;-66
2021/03/03 04:05:53;;;;;;;22.73;10.25;;;;;;;1.30;72.49;97596.63;5053607;28;20127;-65
2021/03/03 04:08:19;;;;;;;20.63;10.52;;;;;;;1.28;72.69;97588.81;5052256;28;20037;-66
2021/03/03 04:10:46;;;;;;;26.63;10.63;;;;;;;1.27;72.67;97589.88;5053852;28;20496;-65
2021/03/03 04:13:12;;;;;;;25.73;10.50;;;;;;;1.24;72.69;97593.00;5052052;28;20407;-65
2021/03/03 04:15:38;;;;;;;22.70;10.52;;;;;;;1.20;72.91;97591.84;5053669;28;20052;-65
2021/03/03 04:18:04;;;;;;;22.83;11.70;;;;;;;1.18;72.99;97588.53;5052234;28;20059;-66
2021/03/03 04:20:30;;;;;;;31.67;11.05;;;;;;;1.08;72.96;97585.59;5052828;28;20770;-65
2021/03/03 04:22:56;;;;;;;23.55;10.98;;;;;;;1.02;73.08;97589.19;5052685;28;20055;-65
2021/03/03 04:25:22;;;;;;;29.92;12.00;;;;;;;1.03;73.25;97588.94;5052386;28;20065;-65
2021/03/03 04:27:49;;;;;;;28.67;11.10;;;;;;;1.01;73.09;97587.56;5052810;28;20053;-65
2021/03/03 04:30:17;;;;;;;29.90;11.23;;;;;;;1.02;73.29;97597.22;5051592;28;20041;-65
2021/03/03 04:32:43;;;;;;;28.50;10.80;;;;;;;1.02;73.13;97602.59;5053262;28;20060;-65
2021/03/03 04:35:10;;;;;;;33.03;11.52;;;;;;;1.00;73.19;97599.34;5051754;28;20512;-65
2021/03/03 04:37:37;;;;;;;22.73;10.43;;;;;;;1.01;73.20;97600.97;5053303;28;20424;-65
2021/03/03 04:40:04;;;;;;;28.58;10.35;;;;;;;1.01;73.27;97600.97;5051643;28;20522;-66
2021/03/03 04:42:30;;;;;;;25.67;10.68;;;;;;;1.01;73.32;97606.34;5053103;28;20045;-65
2021/03/03 04:44:57;;;;;;;22.23;9.88;;;;;;;1.02;73.29;97607.97;5052308;28;20068;-65
2021/03/03 04:47:23;;;;;;;31.83;11.23;;;;;;;1.01;73.22;97596.41;5052162;28;20056;-65
2021/03/03 04:49:49;;;;;;;27.85;11.00;;;;;;;1.01;73.18;97600.97;5052118;28;20132;-65
2021/03/03 04:52:15;;;;;;;31.63;10.30;;;;;;;0.97;73.13;97599.78;5051844;28;20053;-65
2021/03/03 04:54:41;;;;;;;32.05;11.05;;;;;;;0.95;72.97;97596.50;5052420;28;20055;-65
2021/03/03 04:57:07;;;;;;;33.13;10.48;;;;;;;0.92;73.07;97592.41;5051302;28;20040;-65
2021/03/03 04:59:33;;;;;;;23.92;10.68;;;;;;;0.88;73.30;97601.13;5052805;28;20045;-65
2021/03/03 05:02:00;;;;;;;20.98;10.23;;;;;;;0.90;73.26;97599.88;5051537;28;20458;-65
2021/03/03 05:04:26;;;;;;;23.05;9.88;;;;;;;0.92;73.10;97597.75;5052386;28;20114;-65
2021/03/03 05:06:52;;;;;;;22.23;10.73;;;;;;;0.91;73.00;97601.50;5051657;28;20068;-65
2021/03/03 05:09:18;;;;;;;23.75;10.38;;;;;;;0.91;72.90;97601.50;5052025;28;20068;-65
2021/03/03 05:11:44;;;;;;;21.25;10.43;;;;;;;0.91;72.72;97595.31;5051872;28;20052;-65
2021/03/03 05:14:10;;;;;;;20.38;10.27;;;;;;;0.86;72.94;97592.50;5051650;28;20049;-65
2021/03/03 05:16:36;;;;;;;21.30;9.77;;;;;;;0.87;72.83;97599.50;5051562;28;20044;-65
2021/03/03 05:19:03;;;;;;;21.77;10.80;;;;;;;0.87;72.73;97591.44;5051014;28;20137;-66
2021/03/03 05:21:29;;;;;;;19.60;10.07;;;;;;;0.88;72.70;97590.41;5051990;28;20049;-65
2021/03/03 05:23:55;;;;;;;21.00;10.25;;;;;;;0.86;72.63;97593.31;5051217;28;20060;-65
2021/03/03 05:26:21;;;;;;;23.33;10.48;;;;;;;0.83;72.50;97584.88;5051534;28;20044;-65
2021/03/03 05:28:47;;;;;;;18.55;9.85;;;;;;;0.79;72.45;97581.84;5051058;28;20049;-65
2021/03/03 05:31:14;;;;;;;21.80;9.73;;;;;;;0.76;72.42;97577.75;5051465;28;20130;-65
2021/03/03 05:33:42;;;;;;;20.42;9.60;;;;;;;0.75;72.44;97581.47;5051209;28;20056;-65
2021/03/03 05:36:09;;;;;;;26.67;10.65;;;;;;;0.73;72.46;97583.59;5051255;28;20048;-65
2021/03/03 05:38:36;;;;;;;23.27;9.95;;;;;;;0.75;72.45;97586.03;5051371;28;20049;-65
2021/03/03 05:41:03;;;;;;;20.88;8.90;;;;;;;0.75;72.50;97580.66;5050578;28;20060;-65
2021/03/03 05:43:30;;;;;;;21.27;10.13;;;;;;;0.77;72.53;97574.03;5050988;28;20447;-66
2021/03/03 05:45:58;;;;;;;18.73;9.93;;;;;;;0.81;72.46;97576.25;5050942;28;20045;-65
2021/03/03 05:48:27;;;;;;;23.42;8.88;;;;;;;0.83;72.52;97576.84;5050183;28;20160;-65
2021/03/03 05:50:58;;;;;;;19.25;9.70;;;;;;;0.83;72.31;97582.22;5050414;28;20053;-65
2021/03/03 05:53:26;;;;;;;20.98;9.82;;;;;;;0.85;72.16;97574.78;5051510;28;20068;-65
2021/03/03 05:55:54;;;;;;;19.48;9.63;;;;;;;0.85;71.91;97578.28;5050598;28;20049;-65
2021/03/03 05:58:20;;;;;;;22.38;10.15;;;;;;;0.84;72.07;97581.19;5050984;28;20052;-65
2021/03/03 06:00:48;;;;;;;21.38;9.70;;;;;;;0.83;72.18;97576.84;5050812;28;20135;-65
2021/03/03 06:03:16;;;;;;;22.85;9.73;;;;;;;0.80;72.06;97585.34;5051184;28;20037;-65
2021/03/03 06:05:42;;;;;;;19.90;9.30;;;;;;;0.78;72.07;97581.03;5051546;28;20040;-65
2021/03/03 06:08:09;;;;;;;19.02;8.95;;;;;;;0.78;72.18;97575.69;5050112;28;20550;-66
2021/03/03 06:10:35;;;;;;;20.98;9.20;;;;;;;0.76;72.40;97583.13;5051367;28;20091;-65
2021/03/03 06:13:01;;;;;;;19.20;9.63;;;;;;;0.81;72.65;97577.06;5049483;28;20059;-68
2021/03/03 06:15:27;;;;;;;20.52;9.52;;;;;;;0.87;72.74;97572.66;5051460;28;20049;-65
2021/03/03 06:17:54;;;;;;;18.67;9.50;;;;;;;0.94;72.55;97573.38;5050323;28;20044;-65
2021/03/03 06:20:21;;;;;;;19.25;8.75;;;;;;;1.01;72.60;97580.31;5050202;28;20053;-65
2021/03/03 06:22:47;;;;;;;19.75;9.25;;;;;;;1.12;72.62;97578.72;5050359;28;20064;-66
2021/03/03 06:25:20;;;;;;;17.67;9.07;;;;;;;1.24;72.50;97579.59;5050224;28;20049;-65
2021/03/03 06:27:48;;;;;;;17.80;8.55;;;;;;;1.36;72.28;97581.47;5050753;28;20057;-65
2021/03/03 06:30:16;;;;;;;17.77;9.02;;;;;;;1.46;72.06;97584.44;5049888;28;20052;-65
2021/03/03 06:33:00;;;;;;;17.13;9.13;;;;;;;1.55;71.78;97585.75;5050985;28;20128;-65
2021/03/03 06:35:39;;;;;;;17.98;8.52;;;;;;;1.62;71.64;97591.84;5049446;28;20055;-65
2021/03/03 06:38:07;;;;;;;18.30;9.15;;;;;;;1.78;71.48;97596.53;5050131;28;20503;-65
2021/03/03 06:40:34;;;;;;;17.73;8.23;;;;;;;1.92;71.58;97593.63;5050050;28;20068;-66
2021/03/03 06:43:20;;;;;;;14.30;8.07;;;;;;;2.08;70.97;97584.88;5050574;28;20049;-65
2021/03/03 06:45:46;;;;;;;15.25;8.13;;;;;;;2.21;70.96;97589.19;5050380;28;20048;-65
2021/03/03 06:48:12;;;;;;;19.30;9.13;;;;;;;2.33;70.68;97592.69;5049455;28;20045;-65
2021/03/03 06:50:39;;;;;;;19.45;8.32;;;;;;;2.45;70.51;97588.13;5050584;28;20408;-65
2021/03/03 06:53:06;;;;;;;17.63;8.35;;;;;;;2.57;70.34;97582.75;5048911;28;20514;-65
2021/03/03 06:55:49;;;;;;;20.60;8.52;;;;;;;2.69;69.78;97586.22;5050730;28;20412;-65
2021/03/03 06:58:29;;;;;;;19.60;8.48;;;;;;;2.83;69.79;97576.03;5049135;28;20408;-66
2021/03/03 07:00:57;;;;;;;24.17;8.82;;;;;;;2.97;69.59;97581.91;5049890;28;20052;-65
2021/03/03 07:03:28;;;;;;;17.63;8.50;;;;;;;3.11;69.40;97583.28;5049546;28;20041;-65
2021/03/03 07:05:55;;;;;;;19.00;8.18;;;;;;;3.21;68.67;97578.09;5049063;28;20047;-65
2021/03/03 07:08:21;;;;;;;17.55;8.18;;;;;;;3.33;68.16;97578.84;5048544;28;20045;-65
2021/03/03 07:10:48;;;;;;;18.55;8.23;;;;;;;3.48;67.95;97572.94;5049419;28;20071;-65
2021/03/03 07:13:14;;;;;;;18.90;9.60;;;;;;;3.58;67.77;97574.97;5050201;28;20041;-65
2021/03/03 07:15:41;;;;;;;18.20;9.50;;;;;;;3.68;67.89;97577.84;5049507;28;20045;-66
2021/03/03 07:18:32;;;;;;;15.60;8.57;;;;;;;3.76;67.11;97580.16;5049858;28;20095;-66
2021/03/03 07:20:58;;;;;;;18.08;8.68;;;;;;;3.85;67.04;97580.53;5030298;28;20524;-65
2021/03/03 07:23:46;;;;;;;13.77;7.40;;;;;;;3.96;66.75;97589.59;5029337;28;20044;-67
2021/03/03 07:26:13;;;;;;;15.55;7.47;;;;;;;4.06;66.11;97600.56;5030088;28;20050;-67
2021/03/03 07:28:40;;;;;;;13.40;7.63;;;;;;;4.14;66.43;97594.75;5045257;28;20044;-67
2021/03/03 07:31:07;;;;;;;14.50;8.27;;;;;;;4.28;66.50;97597.91;5050247;28;20045;-73
2021/03/03 07:33:34;;;;;;;16.70;8.98;;;;;;;4.35;67.42;97598.59;5049063;28;20056;-71
2021/03/03 07:36:03;;;;;;;13.52;8.25;;;;;;;4.40;67.72;97607.56;5050135;28;20107;-71
2021/03/03 07:38:32;;;;;;;14.95;8.20;;;;;;;4.43;67.47;97600.84;5047573;28;20056;-71
2021/03/03 07:41:03;;;;;;;14.65;8.35;;;;;;;4.52;67.41;97601.25;5049124;28;20048;-71
2021/03/03 07:43:31;;;;;;;22.02;9.65;;;;;;;4.60;67.23;97601.63;5049636;28;20056;-71
2021/03/03 07:46:01;;;;;;;23.23;8.02;;;;;;;4.69;66.34;97599.31;5048393;28;20095;-71
2021/03/03 07:48:29;;;;;;;17.65;7.90;;;;;;;4.80;64.48;97594.84;5049396;28;20044;-71
2021/03/03 07:50:55;;;;;;;18.17;8.20;;;;;;;4.90;64.09;97600.38;5049090;28;20458;-70
2021/03/03 07:53:21;;;;;;;17.25;7.85;;;;;;;5.03;66.20;97604.59;5049729;28;20060;-71
2021/03/03 07:55:48;;;;;;;20.05;7.97;;;;;;;5.09;64.90;97603.59;5049312;28;20041;-71
2021/03/03 07:58:14;;;;;;;17.15;8.40;;;;;;;5.13;65.01;97602.03;5049419;28;20041;-71
2021/03/03 08:00:43;;;;;;;20.05;8.93;;;;;;;5.22;65.61;97597.81;5048609;28;20048;-71
2021/03/03 08:03:09;;;;;;;16.45;8.65;;;;;;;5.27;64.52;97597.84;5049281;28;20064;-71
2021/03/03 08:05:37;;;;;;;15.07;9.02;;;;;;;5.33;63.80;97588.75;5051540;28;20045;-70
2021/03/03 08:08:23;;;;;;;15.00;6.97;;;;;;;5.45;63.81;97591.31;5052713;28;20526;-71
2021/03/03 08:10:50;;;;;;;14.50;8.13;;;;;;;5.59;62.87;97586.31;5054150;28;20044;-71
2021/03/03 08:13:17;;;;;;;18.98;6.82;;;;;;;5.73;62.87;97582.09;5052319;28;20041;-71
2021/03/03 08:15:44;;;;;;;15.32;6.47;;;;;;;5.94;62.07;97577.72;5053794;28;20049;-71
2021/03/03 08:18:26;;;;;;;15.82;6.20;;;;;;;6.16;60.38;97585.72;5052267;28;20060;-71
2021/03/03 08:20:55;;;;;;;11.93;6.18;;;;;;;6.45;60.46;97584.31;5033433;28;20052;-71
2021/03/03 08:23:40;;;;;;;16.88;6.13;;;;;;;6.75;58.74;97572.03;5032618;28;20049;-71
2021/03/03 08:26:06;;;;;;;11.73;5.97;;;;;;;6.98;58.54;97585.13;5032227;28;20107;-71
2021/03/03 08:28:34;;;;;;;13.13;5.38;;;;;;;7.25;56.82;97582.22;5048847;28;20099;-71
2021/03/03 08:31:33;;;;;;;9.68;5.55;;;;;;;7.43;54.89;97583.66;5052334;28;20045;-70
2021/03/03 08:34:06;;;;;;;9.88;4.80;;;;;;;7.48;53.92;97583.66;5053116;28;20048;-70
2021/03/03 08:36:55;;;;;;;9.93;5.57;;;;;;;7.64;54.44;97583.69;5052463;28;20045;-71
2021/03/03 08:39:26;;;;;;;15.02;5.05;;;;;;;7.92;54.36;97588.59;5050766;28;20053;-70
2021/03/03 08:41:52;;;;;;;11.00;5.03;;;;;;;8.19;52.96;97584.78;5053258;28;20107;-72
2021/03/03 08:44:18;;;;;;;15.10;4.95;;;;;;;8.41;53.03;97582.66;5051695;28;20056;-72
2021/03/03 08:46:47;;;;;;;13.07;5.00;;;;;;;8.54;53.81;97576.63;5053381;28;20075;-70
2021/03/03 08:49:29;;;;;;;9.95;4.72;;;;;;;8.58;53.22;97577.72;5051129;28;20559;-69
2021/03/03 08:52:11;;;;;;;9.00;4.37;;;;;;;8.62;53.99;97578.81;5053327;28;20049;-70
2021/03/03 08:54:40;;;;;;;6.40;4.32;;;;;;;8.63;53.55;97575.00;5033166;28;20052;-71
2021/03/03 08:57:30;;;;;;;11.77;4.53;;;;;;;8.49;53.12;97576.66;5031950;28;20048;-71
2021/03/03 08:59:56;;;;;;;10.63;4.72;;;;;;;8.28;53.95;97577.75;5032942;28;20558;-70
2021/03/03 09:02:26;;;;;;;8.07;4.05;;;;;;;8.19;54.63;97574.75;5031612;28;20042;-71
2021/03/03 09:04:53;;;;;;;10.95;4.35;;;;;;;8.23;55.13;97581.25;5032982;28;20054;-71
2021/03/03 09:07:21;;;;;;;12.02;4.45;;;;;;;8.25;54.63;97576.41;5031534;28;20128;-71
2021/03/03 09:09:49;;;;;;;11.45;3.67;;;;;;;8.27;54.21;97576.13;5032369;28;20053;-71
2021/03/03 09:12:17;;;;;;;8.60;3.80;;;;;;;8.23;53.31;97572.31;5031891;28;20513;-71
2021/03/03 09:14:45;;;;;;;8.93;3.28;;;;;;;8.22;53.29;97566.06;5032288;28;20053;-71
2021/03/03 09:17:13;;;;;;;11.55;3.53;;;;;;;8.33;53.63;97569.59;5030686;28;20056;-71
2021/03/03 09:19:40;;;;;;;6.97;3.60;;;;;;;8.50;53.35;97570.13;5031235;28;20056;-71
2021/03/03 09:22:21;;;;;;;9.15;2.88;;;;;;;8.71;52.36;97570.88;5032394;28;20068;-71
2021/03/03 09:24:49;;;;;;;7.88;2.85;;;;;;;8.89;51.27;97566.78;5031371;28;20050;-70
2021/03/03 09:27:15;;;;;;;10.43;2.70;;;;;;;9.04;51.13;97558.56;5031327;28;20049;-70
2021/03/03 09:29:42;;;;;;;7.95;2.95;;;;;;;9.35;51.86;97569.28;5031681;28;20111;-71
2021/03/03 09:32:10;;;;;;;6.65;2.75;;;;;;;9.40;49.80;97574.69;5031721;28;20124;-71
2021/03/03 09:34:46;;;;;;;6.07;2.95;;;;;;;9.41;49.08;97570.88;5031891;28;20045;-71
2021/03/03 09:37:14;;;;;;;6.78;2.72;;;;;;;9.45;48.87;97574.69;5031104;28;20061;-71
2021/03/03 09:39:41;;;;;;;8.98;2.95;;;;;;;9.57;45.60;97571.59;5032143;28;20492;-71
2021/03/03 09:42:08;;;;;;;8.60;3.65;;;;;;;9.68;46.05;97568.53;5030784;28;20041;-71
2021/03/03 09:44:55;;;;;;;7.90;3.00;;;;;;;9.74;46.53;97566.59;5032232;28;20072;-71
2021/03/03 09:47:29;;;;;;;8.18;3.08;;;;;;;9.87;45.86;97565.16;5030551;28;20057;-71
2021/03/03 09:49:56;;;;;;;6.90;3.40;;;;;;;10.02;44.18;97569.63;5031343;28;20096;-71
2021/03/03 09:52:23;;;;;;;9.35;3.33;;;;;;;10.13;45.16;97569.28;5030485;28;20101;-71
2021/03/03 09:54:50;;;;;;;7.57;3.10;;;;;;;10.28;44.69;97554.75;5028274;28;20049;-71
2021/03/03 09:57:22;;;;;;;6.68;3.60;;;;;;;10.26;43.77;97561.59;5013232;28;20070;-71
2021/03/03 09:59:49;;;;;;;10.32;4.00;;;;;;;10.35;43.16;97560.69;5030119;28;20052;-70
2021/03/03 10:02:17;;;;;;;8.00;4.15;;;;;;;10.41;43.81;97558.72;5030109;28;20117;-71
2021/03/03 10:04:44;;;;;;;8.40;3.28;;;;;;;10.33;43.46;97562.06;5027851;28;20053;-71
2021/03/03 10:07:11;;;;;;;8.57;3.90;;;;;;;10.38;44.76;97564.72;5030812;28;20056;-71
2021/03/03 10:09:39;;;;;;;7.75;4.20;;;;;;;10.51;43.31;97553.16;5031475;28;20520;-71
2021/03/03 10:12:09;;;;;;;12.85;4.43;;;;;;;10.53;43.62;97556.41;5031008;28;20045;-71
2021/03/03 10:14:35;;;;;;;8.55;4.07;;;;;;;10.65;44.49;97562.28;5030706;28;20203;-71
2021/03/03 10:17:02;;;;;;;7.10;3.95;;;;;;;10.76;44.53;97559.47;5030941;28;20056;-71
2021/03/03 10:19:28;;;;;;;10.07;4.20;;;;;;;10.73;43.76;97555.38;5033991;28;20103;-71
2021/03/03 10:21:54;;;;;;;8.75;4.50;;;;;;;10.82;44.34;97561.03;5050308;28;20175;-71
2021/03/03 10:24:22;;;;;;;11.82;4.85;;;;;;;10.91;45.62;97553.81;5050655;28;20053;-71
2021/03/03 10:26:52;;;;;;;13.50;4.22;;;;;;;10.88;43.04;97552.50;5050041;28;20407;-70
2021/03/03 10:29:35;;;;;;;10.75;4.07;;;;;;;10.99;43.26;97555.91;5050432;28;20052;-71
2021/03/03 10:32:09;;;;;;;7.18;4.07;;;;;;;11.13;43.96;97554.09;5050289;28;20076;-71
2021/03/03 10:34:35;;;;;;;11.65;4.85;;;;;;;11.19;42.11;97552.94;5050409;28;20408;-71
2021/03/03 10:37:01;;;;;;;9.93;4.90;;;;;;;11.22;42.23;97563.25;5050852;28;20804;-71
2021/03/03 10:39:28;;;;;;;8.98;4.70;;;;;;;11.11;42.20;97561.75;5049742;28;20099;-71
2021/03/03 10:42:00;;;;;;;8.35;4.50;;;;;;;11.22;43.17;97551.50;5051244;28;20119;-71
2021/03/03 10:44:38;;;;;;;11.45;5.13;;;;;;;11.29;42.19;97546.53;5049463;28;20091;-71
2021/03/03 10:47:04;;;;;;;9.48;5.28;;;;;;;11.26;42.26;97551.75;5050402;28;20056;-70
2021/03/03 10:49:30;;;;;;;9.80;5.10;;;;;;;11.35;43.11;97544.53;5049528;28;20045;-70
2021/03/03 10:51:56;;;;;;;8.93;4.97;;;;;;;11.41;43.55;97549.63;5050520;28;20122;-70
2021/03/03 10:54:30;;;;;;;11.20;4.88;;;;;;;11.41;42.26;97543.34;5049385;28;20527;-71
2021/03/03 10:57:04;;;;;;;14.02;5.75;;;;;;;11.43;43.43;97541.13;5050018;28;20071;-70
2021/03/03 10:59:30;;;;;;;9.15;4.90;;;;;;;11.61;44.30;97532.16;5050400;28;20098;-71
2021/03/03 11:01:58;;;;;;;11.63;5.88;;;;;;;11.75;44.26;97526.78;5049970;28;20056;-71
2021/03/03 11:04:37;;;;;;;14.85;5.68;;;;;;;11.95;42.91;97531.09;5050393;28;20049;-71
2021/03/03 11:07:03;;;;;;;19.33;6.88;;;;;;;12.06;42.50;97526.28;5047954;28;20076;-72
2021/03/03 11:09:29;;;;;;;8.23;4.93;;;;;;;12.22;43.51;97525.75;5047745;28;20045;-71
2021/03/03 11:11:57;;;;;;;10.40;5.65;;;;;;;12.26;41.38;97525.94;5049884;28;20048;-71
2021/03/03 11:14:23;;;;;;;10.30;5.38;;;;;;;12.28;41.29;97524.53;5049764;28;20048;-71
2021/03/03 11:16:50;;;;;;;13.18;5.55;;;;;;;12.32;42.35;97519.31;5049965;28;20049;-70
2021/03/03 11:19:17;;;;;;;10.10;5.57;;;;;;;12.35;42.68;97512.41;5048792;28;20050;-71
2021/03/03 11:21:44;;;;;;;10.55;6.30;;;;;;;12.32;42.61;97513.00;5050270;28;20440;-71
2021/03/03 11:24:10;;;;;;;11.10;5.70;;;;;;;12.42;43.04;97515.56;5048945;28;20389;-70
2021/03/03 11:26:38;;;;;;;12.52;5.88;;;;;;;12.54;43.38;97513.16;5050363;28;20067;-71
2021/03/03 11:29:05;;;;;;;13.75;6.15;;;;;;;12.58;41.63;97511.44;5047726;28;20045;-71
2021/03/03 11:31:31;;;;;;;12.80;6.03;;;;;;;12.56;42.30;97508.19;5050253;28;20045;-71
2021/03/03 11:33:57;;;;;;;15.50;6.45;;;;;;;12.52;42.19;97512.63;5049524;28;20052;-71